Time;durP1;ratioP1;P1;durP2;ratioP2;P2;SDS_P1;SDS_P2;PMS_P1;PMS_P2;Temp;Humidity;BMP_temperature;BMP_pressure;BME280_temperature;BME280_humidity;BME280_pressure;Samples;Min_cycle;Max_cycle;Signal;HPM_P1;HPM_P2
2022/11/12 00:02:10;;;;;;;32.03;19.95;;;;;;;7.10;100.00;101157.91;4898518;29;20378;-82
2022/11/12 00:04:36;;;;;;;36.10;22.48;;;;;;;7.13;100.00;101164.81;4898537;29;20016;-82
2022/11/12 00:07:01;;;;;;;25.33;16.92;;;;;;;7.11;100.00;101177.75;4898489;29;20461;-82
2022/11/12 00:09:26;;;;;;;26.08;16.40;;;;;;;7.02;100.00;101166.59;4881478;29;20062;-82
2022/11/12 00:11:52;;;;;;;31.95;20.30;;;;;;;6.99;100.00;101170.94;4898162;29;20031;-82
2022/11/12 00:14:17;;;;;;;30.98;19.52;;;;;;;7.05;100.00;101187.31;4898326;29;20103;-82
2022/11/12 00:16:42;;;;;;;33.20;20.73;;;;;;;6.99;100.00;101175.25;4897828;29;20112;-82
2022/11/12 00:19:08;;;;;;;25.70;15.75;;;;;;;7.00;100.00;101182.19;4881517;29;20119;-82
2022/11/12 00:21:33;;;;;;;21.63;13.98;;;;;;;7.00;100.00;101182.19;4881322;29;20127;-82
2022/11/12 00:23:58;;;;;;;23.77;14.73;;;;;;;6.92;100.00;101169.28;4898029;29;20027;-82
2022/11/12 00:26:24;;;;;;;19.05;11.70;;;;;;;6.98;100.00;101189.94;4898035;29;20020;-82
2022/11/12 00:28:49;;;;;;;25.00;14.57;;;;;;;6.99;100.00;101191.69;4897811;29;20156;-82
2022/11/12 00:31:14;;;;;;;22.17;13.73;;;;;;;7.02;100.00;101197.69;4897937;29;20075;-82
2022/11/12 00:33:41;;;;;;;42.15;22.85;;;;;;;6.97;100.00;101190.81;4898172;29;20097;-82
2022/11/12 00:36:07;;;;;;;21.98;12.35;;;;;;;6.92;100.00;101186.53;4897724;29;20032;-82
2022/11/12 00:38:33;;;;;;;13.05;9.32;;;;;;;6.94;100.00;101188.22;4897921;29;20023;-82
2022/11/12 00:40:59;;;;;;;14.00;8.85;;;;;;;6.99;100.00;101204.63;4897650;29;20027;-82
2022/11/12 00:43:24;;;;;;;13.52;9.10;;;;;;;6.98;100.00;101196.84;4897736;29;20029;-82
2022/11/12 00:45:49;;;;;;;36.95;18.30;;;;;;;6.89;100.00;101191.75;4897463;29;20033;-82
2022/11/12 00:48:15;;;;;;;32.42;16.63;;;;;;;6.90;100.00;101196.91;4897544;29;20048;-82
2022/11/12 00:50:40;;;;;;;44.67;21.25;;;;;;;6.80;100.00;101184.88;4897593;29;20029;-82
2022/11/12 00:53:06;;;;;;;39.25;21.60;;;;;;;6.86;100.00;101197.78;4897308;29;20020;-82
2022/11/12 00:55:31;;;;;;;40.17;21.08;;;;;;;6.85;100.00;101209.03;4880721;29;20064;-82
2022/11/12 00:57:58;;;;;;;56.95;29.42;;;;;;;6.83;100.00;101204.75;4897303;29;20028;-82
2022/11/12 01:00:23;;;;;;;50.28;25.77;;;;;;;6.77;100.00;101194.41;4880628;29;20469;-82
2022/11/12 01:02:48;;;;;;;34.90;19.05;;;;;;;6.82;100.00;101210.78;4897156;29;20031;-82
2022/11/12 01:05:14;;;;;;;39.13;21.88;;;;;;;6.78;100.00;101198.72;4896943;29;20461;-82
2022/11/12 01:07:40;;;;;;;31.50;16.30;;;;;;;6.67;100.00;101183.25;4897405;29;20096;-82
2022/11/12 01:10:06;;;;;;;21.73;12.70;;;;;;;6.69;100.00;101197.91;4880398;29;20047;-82
2022/11/12 01:12:32;;;;;;;19.42;10.75;;;;;;;6.70;100.00;101198.75;4897207;29;20032;-82
2022/11/12 01:14:57;;;;;;;13.80;8.07;;;;;;;6.66;100.00;101197.06;4896960;29;20032;-82
2022/11/12 01:17:22;;;;;;;14.02;8.40;;;;;;;6.58;100.00;101188.50;4897205;29;20486;-82
2022/11/12 01:19:49;;;;;;;12.02;8.27;;;;;;;6.62;100.00;101201.41;4880406;29;20409;-82
2022/11/12 01:22:14;;;;;;;14.02;9.75;;;;;;;6.54;100.00;101192.81;4897288;29;20063;-82
2022/11/12 01:24:40;;;;;;;29.33;17.85;;;;;;;6.53;100.00;101192.81;4880513;29;20028;-82
2022/11/12 01:27:05;;;;;;;25.10;16.27;;;;;;;6.52;100.00;101189.38;4896886;29;20116;-82
2022/11/12 01:29:30;;;;;;;27.48;16.88;;;;;;;6.53;100.00;101206.63;4880326;29;20021;-82
2022/11/12 01:31:56;;;;;;;27.67;16.67;;;;;;;6.53;100.00;101200.56;4896985;29;20080;-82
2022/11/12 01:34:21;;;;;;;21.55;12.55;;;;;;;6.42;100.00;101200.66;4897453;29;20092;-82
2022/11/12 01:36:47;;;;;;;22.15;12.88;;;;;;;6.44;100.00;101210.09;4896911;29;20038;-82
2022/11/12 01:39:12;;;;;;;15.18;11.07;;;;;;;6.31;100.00;101192.91;4896860;29;20037;-82
2022/11/12 01:41:39;;;;;;;15.50;9.82;;;;;;;6.28;100.00;101203.31;4897018;29;20029;-82
2022/11/12 01:44:11;;;;;;;10.95;8.40;;;;;;;6.29;100.00;101207.59;4879901;29;20025;-82
2022/11/12 01:46:54;;;;;;;12.30;8.20;;;;;;;6.21;100.00;101202.44;4896895;29;20478;-82
2022/11/12 01:49:29;;;;;;;13.50;7.65;;;;;;;6.14;100.00;101202.47;4896925;29;20051;-82
2022/11/12 01:52:00;;;;;;;8.75;6.63;;;;;;;6.14;100.00;101208.50;4896654;29;20111;-82
2022/11/12 01:54:26;;;;;;;12.35;7.85;;;;;;;6.14;100.00;101212.81;4896853;29;20031;-82
2022/11/12 01:56:53;;;;;;;8.73;6.70;;;;;;;6.01;100.00;101196.47;4896698;29;20037;-82
2022/11/12 01:59:26;;;;;;;10.73;7.45;;;;;;;6.04;100.00;101208.56;4896975;29;20032;-82
2022/11/12 02:01:51;;;;;;;12.10;7.47;;;;;;;5.94;100.00;101198.25;4879890;29;20061;-82
2022/11/12 02:04:17;;;;;;;10.32;7.25;;;;;;;5.89;100.00;101194.75;4896839;29;20028;-81
2022/11/12 02:06:44;;;;;;;11.50;7.78;;;;;;;5.92;100.00;101202.53;4879918;29;20036;-82
2022/11/12 02:09:10;;;;;;;11.98;7.68;;;;;;;5.89;100.00;101206.81;4879568;29;20029;-82
2022/11/12 02:11:35;;;;;;;12.13;7.03;;;;;;;5.83;100.00;101197.38;4880086;29;20377;-82
2022/11/12 02:14:01;;;;;;;11.85;7.15;;;;;;;5.81;100.00;101195.63;4896854;29;20110;-82
2022/11/12 02:16:31;;;;;;;12.35;7.60;;;;;;;5.76;100.00;101193.94;4880809;29;20029;-82
2022/11/12 02:18:56;;;;;;;11.15;7.55;;;;;;;5.71;100.00;101193.06;4883327;29;20021;-82
2022/11/12 02:21:23;;;;;;;13.88;8.25;;;;;;;5.69;100.00;101184.47;4900219;29;20088;-82
2022/11/12 02:23:58;;;;;;;16.75;10.40;;;;;;;5.69;100.00;101197.41;4900618;29;20157;-82
2022/11/12 02:26:24;;;;;;;13.40;8.88;;;;;;;5.55;100.00;101170.69;4900054;29;20468;-82
2022/11/12 02:28:50;;;;;;;14.57;9.00;;;;;;;5.58;100.00;101177.59;4883269;29;20024;-82
2022/11/12 02:31:15;;;;;;;19.17;10.68;;;;;;;5.58;100.00;101188.81;4900553;29;20111;-82
2022/11/12 02:33:40;;;;;;;17.33;9.43;;;;;;;5.56;100.00;101193.09;4900236;29;20028;-82
2022/11/12 02:36:06;;;;;;;13.10;8.73;;;;;;;5.54;100.00;101189.66;4899797;29;20032;-82
2022/11/12 02:38:31;;;;;;;10.18;7.15;;;;;;;5.46;100.00;101178.47;4899982;29;20032;-82
2022/11/12 02:40:57;;;;;;;13.23;8.35;;;;;;;5.43;100.00;101184.50;4899939;29;20141;-82
2022/11/12 02:43:22;;;;;;;12.93;8.90;;;;;;;5.41;100.00;101183.66;4860085;29;20423;-82
2022/11/12 02:45:47;;;;;;;10.45;7.25;;;;;;;5.42;100.00;101184.50;4860295;29;20113;-82
2022/11/12 02:48:13;;;;;;;12.63;8.63;;;;;;;5.32;100.00;101175.06;4860054;29;20116;-82
2022/11/12 02:50:38;;;;;;;13.02;8.07;;;;;;;5.37;100.00;101191.41;4860184;29;20082;-82
2022/11/12 02:53:03;;;;;;;12.90;8.30;;;;;;;5.31;100.00;101176.78;4859896;29;20038;-82
2022/11/12 02:55:29;;;;;;;13.75;8.23;;;;;;;5.29;100.00;101175.91;4860054;29;20498;-82
2022/11/12 02:57:58;;;;;;;13.13;7.90;;;;;;;5.32;100.00;101186.25;4844254;29;20382;-82
2022/11/12 03:00:23;;;;;;;11.93;8.65;;;;;;;5.24;100.00;101182.81;4860050;29;20476;-82
2022/11/12 03:03:01;;;;;;;12.80;8.25;;;;;;;5.20;100.00;101189.69;4860042;29;20044;-82
2022/11/12 03:05:29;;;;;;;14.52;8.30;;;;;;;5.17;100.00;101189.69;4859784;29;20418;-82
2022/11/12 03:08:03;;;;;;;15.52;8.48;;;;;;;5.21;100.00;101199.16;4844121;29;20032;-82
2022/11/12 03:10:29;;;;;;;12.23;8.23;;;;;;;5.19;100.00;101197.44;4859663;29;20136;-82
2022/11/12 03:12:59;;;;;;;14.57;8.68;;;;;;;5.08;100.00;101178.50;4844059;29;20125;-82
2022/11/12 03:15:25;;;;;;;13.60;8.48;;;;;;;5.14;100.00;101200.03;4861283;29;20385;-82
2022/11/12 03:17:50;;;;;;;12.10;8.85;;;;;;;5.08;100.00;101194.00;4878679;29;20470;-82
2022/11/12 03:20:16;;;;;;;13.57;8.63;;;;;;;5.06;100.00;101198.31;4877895;29;20041;-82
2022/11/12 03:22:41;;;;;;;15.80;8.93;;;;;;;5.07;100.00;101207.78;4862386;29;20483;-82
2022/11/12 03:25:08;;;;;;;15.75;8.82;;;;;;;5.06;100.00;101201.75;4877742;29;20119;-82
2022/11/12 03:27:34;;;;;;;12.02;8.10;;;;;;;4.97;100.00;101181.06;4878134;29;20056;-82
2022/11/12 03:29:59;;;;;;;13.55;8.57;;;;;;;5.00;100.00;101197.41;4858637;29;20030;-82
2022/11/12 03:32:25;;;;;;;13.63;8.50;;;;;;;4.89;100.00;101180.22;4859363;29;20052;-83
2022/11/12 03:34:50;;;;;;;15.98;9.30;;;;;;;5.02;100.00;101201.75;4859275;29;20034;-83
2022/11/12 03:37:15;;;;;;;13.77;9.20;;;;;;;4.96;100.00;101193.09;4859086;29;20073;-83
2022/11/12 03:39:41;;;;;;;13.60;9.15;;;;;;;5.03;100.00;101203.47;4859362;29;20068;-82
2022/11/12 03:42:06;;;;;;;13.13;8.02;;;;;;;4.94;100.00;101192.25;4845048;29;20050;-82
2022/11/12 03:44:32;;;;;;;11.90;8.18;;;;;;;4.92;100.00;101187.94;4840891;29;20102;-82
2022/11/12 03:46:58;;;;;;;15.88;8.50;;;;;;;4.98;100.00;101212.06;4840531;29;20029;-82
2022/11/12 03:49:23;;;;;;;17.63;8.77;;;;;;;4.95;100.00;101204.31;4840701;29;21055;-83
2022/11/12 03:51:48;;;;;;;14.82;8.88;;;;;;;4.90;100.00;101200.00;4840835;29;20045;-83
2022/11/12 03:54:14;;;;;;;15.10;9.40;;;;;;;4.82;100.00;101196.53;4840403;29;20029;-83
2022/11/12 03:56:39;;;;;;;13.52;9.65;;;;;;;4.80;100.00;101187.91;4840482;29;20045;-83
2022/11/12 03:59:04;;;;;;;15.57;9.02;;;;;;;4.80;100.00;101190.50;4840474;29;20173;-82
2022/11/12 04:01:30;;;;;;;13.65;8.95;;;;;;;4.79;100.00;101192.22;4881972;29;20041;-83
2022/11/12 04:03:55;;;;;;;13.18;8.82;;;;;;;4.69;100.00;101173.28;4881495;29;20701;-83
2022/11/12 04:09:05;;;;;;;14.20;9.18;;;;;;;4.68;100.00;101176.75;4898221;29;20051;-82
2022/11/12 04:11:30;;;;;;;12.05;8.07;;;;;;;4.78;100.00;101189.66;4881628;29;20453;-82
2022/11/12 04:13:55;;;;;;;13.30;8.38;;;;;;;4.80;100.00;101187.91;4881485;29;20400;-82
2022/11/12 04:22:07;;;;;;;11.23;7.75;;;;;;;4.93;100.00;101187.06;4898336;29;20055;-82
2022/11/12 04:27:24;;;;;;;12.18;7.22;;;;;;;4.96;100.00;101187.94;4898087;29;20515;-82
2022/11/12 04:32:39;;;;;;;10.40;7.50;;;;;;;5.00;100.00;101189.66;4897990;29;20036;-83
2022/11/12 04:35:07;;;;;;;10.00;7.68;;;;;;;4.98;100.00;101175.91;4897506;29;20051;-83
2022/11/12 04:37:45;;;;;;;10.07;7.78;;;;;;;5.02;100.00;101175.94;4897754;29;20036;-83
2022/11/12 04:45:52;;;;;;;9.30;6.68;;;;;;;4.98;100.00;101159.56;4898047;29;20115;-83
2022/11/12 04:48:18;;;;;;;9.93;6.65;;;;;;;5.07;100.00;101180.22;4880703;29;20043;-82
2022/11/12 04:50:48;;;;;;;12.48;7.57;;;;;;;5.12;100.00;101175.91;4897734;29;20480;-83
2022/11/12 04:53:14;;;;;;;10.30;7.35;;;;;;;5.14;100.00;101178.47;4897507;29;20084;-82
2022/11/12 04:55:39;;;;;;;11.48;7.20;;;;;;;5.14;100.00;101174.22;4897533;29;20536;-82
2022/11/12 04:58:04;;;;;;;11.07;7.95;;;;;;;5.20;100.00;101181.94;4880376;29;20060;-83
2022/11/12 05:00:30;;;;;;;13.18;7.05;;;;;;;5.22;100.00;101180.22;4880912;29;20096;-83
2022/11/12 05:02:56;;;;;;;15.18;7.97;;;;;;;5.20;100.00;101174.19;4880914;29;20114;-83
2022/11/12 05:05:21;;;;;;;12.32;7.55;;;;;;;5.22;100.00;101184.50;4897384;29;20035;-82
2022/11/12 05:07:46;;;;;;;10.75;7.90;;;;;;;5.21;100.00;101182.78;4880679;29;20060;-83
2022/11/12 05:10:12;;;;;;;20.95;12.02;;;;;;;5.15;100.00;101177.66;4897185;29;20025;-83
2022/11/12 05:12:37;;;;;;;15.07;9.88;;;;;;;5.14;100.00;101183.66;4897220;29;20060;-83
2022/11/12 05:15:03;;;;;;;10.95;8.38;;;;;;;5.11;100.00;101186.25;4880147;29;20064;-83
2022/11/12 05:17:28;;;;;;;13.38;7.95;;;;;;;5.07;100.00;101184.53;4897408;29;20041;-83
2022/11/12 05:19:53;;;;;;;10.98;7.40;;;;;;;5.02;100.00;101189.69;4880480;29;20056;-83
2022/11/12 05:22:19;;;;;;;13.88;7.78;;;;;;;4.96;100.00;101190.53;4880121;29;20110;-83
2022/11/12 05:24:44;;;;;;;12.10;7.85;;;;;;;4.91;100.00;101178.47;4880300;29;20024;-83
2022/11/12 05:27:13;;;;;;;12.88;7.10;;;;;;;4.83;100.00;101172.44;4879947;29;20111;-83
2022/11/12 05:29:38;;;;;;;11.85;7.55;;;;;;;4.85;100.00;101181.06;4897063;29;20044;-83
2022/11/12 05:32:09;;;;;;;12.93;8.45;;;;;;;4.74;100.00;101179.31;4879784;29;20468;-83
2022/11/12 05:34:35;;;;;;;13.35;8.50;;;;;;;4.73;100.00;101181.91;4897190;29;20068;-83
2022/11/12 05:37:01;;;;;;;13.82;8.05;;;;;;;4.75;100.00;101190.50;4880123;29;20036;-83
2022/11/12 05:39:27;;;;;;;12.40;7.95;;;;;;;4.72;100.00;101193.09;4896699;29;20021;-83
2022/11/12 05:41:52;;;;;;;12.68;8.40;;;;;;;4.73;100.00;101197.41;4880062;29;20039;-82
2022/11/12 05:44:18;;;;;;;15.68;8.75;;;;;;;4.67;100.00;101205.09;4879988;29;20436;-83
2022/11/12 05:46:43;;;;;;;17.42;8.35;;;;;;;4.67;100.00;101205.09;4897049;29;20028;-83
2022/11/12 05:49:09;;;;;;;11.73;8.00;;;;;;;4.59;100.00;101206.81;4896726;29;20056;-82
2022/11/12 05:51:34;;;;;;;14.05;8.35;;;;;;;4.50;100.00;101200.75;4881200;29;20100;-83
2022/11/12 05:54:00;;;;;;;11.73;7.53;;;;;;;4.56;100.00;101219.72;4883919;29;20070;-82
2022/11/12 05:56:26;;;;;;;14.45;8.38;;;;;;;4.46;100.00;101201.59;4883526;29;20032;-83
2022/11/12 05:58:51;;;;;;;11.50;7.88;;;;;;;4.49;100.00;101213.66;4900941;29;20033;-83
2022/11/12 06:01:16;;;;;;;12.15;8.52;;;;;;;4.40;100.00;101211.06;4900650;29;20039;-83
2022/11/12 06:03:42;;;;;;;10.77;8.13;;;;;;;4.40;100.00;101214.50;4883862;29;20017;-83
2022/11/12 06:06:07;;;;;;;14.65;7.78;;;;;;;4.43;100.00;101226.56;4900435;29;20040;-83
2022/11/12 06:08:33;;;;;;;11.75;7.88;;;;;;;4.38;100.00;101217.91;4883686;29;20048;-83
2022/11/12 06:10:58;;;;;;;17.00;8.40;;;;;;;4.32;100.00;101213.59;4883603;29;20421;-82
2022/11/12 06:13:24;;;;;;;11.05;7.38;;;;;;;4.30;100.00;101209.28;4900702;29;20520;-83
2022/11/12 06:15:51;;;;;;;11.68;8.55;;;;;;;4.34;100.00;101223.91;4883641;29;20481;-83
2022/11/12 06:18:17;;;;;;;14.23;7.88;;;;;;;4.38;100.00;101228.22;4883473;29;20076;-83
2022/11/12 06:20:42;;;;;;;15.10;8.90;;;;;;;4.35;100.00;101223.94;4883629;29;20385;-82
2022/11/12 06:23:07;;;;;;;12.98;8.52;;;;;;;4.35;100.00;101221.34;4900073;29;20055;-82
2022/11/12 06:25:33;;;;;;;11.02;8.50;;;;;;;4.42;100.00;101235.97;4883261;29;20021;-82
2022/11/12 06:27:59;;;;;;;16.60;8.95;;;;;;;4.49;100.00;101236.88;4900444;29;20060;-83
2022/11/12 06:30:24;;;;;;;12.77;9.23;;;;;;;4.55;100.00;101225.72;4900063;29;20117;-83
2022/11/12 06:32:50;;;;;;;13.55;9.10;;;;;;;4.81;100.00;101247.31;4900241;29;20028;-83
2022/11/12 06:35:17;;;;;;;16.80;9.95;;;;;;;4.87;100.00;101237.00;4899823;29;20024;-83
2022/11/12 06:37:46;;;;;;;17.35;11.77;;;;;;;4.93;100.00;101237.03;4900077;29;20035;-84
2022/11/12 06:40:12;;;;;;;19.75;12.63;;;;;;;5.12;100.00;101243.06;4900013;29;20043;-84
2022/11/12 06:42:38;;;;;;;20.38;13.90;;;;;;;5.30;100.00;101244.78;4899990;29;20469;-83
2022/11/12 06:45:04;;;;;;;19.70;13.98;;;;;;;5.42;100.00;101238.78;4883124;29;20056;-83
2022/11/12 06:47:29;;;;;;;20.02;12.82;;;;;;;5.56;100.00;101251.69;4882848;29;20032;-83
2022/11/12 06:49:55;;;;;;;20.83;13.15;;;;;;;5.54;100.00;101243.94;4899910;29;20056;-83
2022/11/12 06:52:20;;;;;;;16.08;12.32;;;;;;;5.62;100.00;101247.38;4882744;29;20413;-83
2022/11/12 06:54:45;;;;;;;19.02;14.10;;;;;;;5.56;100.00;101249.09;4899637;29;20137;-83
2022/11/12 06:57:10;;;;;;;21.83;15.05;;;;;;;5.58;100.00;101256.00;4882882;29;20083;-82
2022/11/12 06:59:36;;;;;;;29.08;19.35;;;;;;;5.60;100.00;101263.75;4899829;29;20448;-83
2022/11/12 07:02:01;;;;;;;38.00;24.17;;;;;;;5.62;100.00;101259.44;4882875;29;20025;-83
2022/11/12 07:04:26;;;;;;;43.40;27.33;;;;;;;5.60;100.00;101256.00;4881496;29;20025;-83
2022/11/12 07:06:52;;;;;;;33.15;21.55;;;;;;;5.68;100.00;101262.88;4899560;29;20055;-83
2022/11/12 07:09:17;;;;;;;36.60;21.70;;;;;;;5.72;100.00;101248.22;4899546;29;20054;-83
2022/11/12 07:11:42;;;;;;;34.80;21.80;;;;;;;5.73;100.00;101244.78;4899632;29;20380;-82
2022/11/12 07:14:08;;;;;;;42.92;26.98;;;;;;;5.87;100.00;101268.03;4882731;29;20024;-82
2022/11/12 07:16:34;;;;;;;54.50;34.97;;;;;;;5.91;100.00;101265.44;4882416;29;20020;-82
2022/11/12 07:19:00;;;;;;;52.22;32.63;;;;;;;6.01;100.00;101274.06;4899405;29;20472;-83
2022/11/12 07:21:25;;;;;;;50.80;31.33;;;;;;;6.07;100.00;101263.72;4898954;29;20056;-83
2022/11/12 07:23:51;;;;;;;67.07;36.83;;;;;;;6.27;100.00;101271.41;4882407;29;20165;-82
2022/11/12 07:26:20;;;;;;;76.30;40.85;;;;;;;6.32;100.00;101258.47;4899071;29;20084;-83
2022/11/12 07:28:47;;;;;;;58.88;33.67;;;;;;;6.54;100.00;101261.84;4899296;29;20021;-81
2022/11/12 07:31:14;;;;;;;52.85;33.88;;;;;;;6.77;100.00;101267.78;4899080;29;20032;-82
2022/11/12 07:33:40;;;;;;;70.07;39.65;;;;;;;6.86;100.00;101256.50;4899291;29;20080;-82
2022/11/12 07:36:11;;;;;;;86.43;47.00;;;;;;;7.04;100.00;101261.59;4882106;29;20024;-82
2022/11/12 07:38:38;;;;;;;91.20;50.85;;;;;;;7.27;100.00;101274.38;4882278;29;20048;-83
2022/11/12 07:41:14;;;;;;;103.18;52.80;;;;;;;7.45;100.00;101275.97;4899103;29;20028;-83
2022/11/12 07:43:42;;;;;;;97.05;49.75;;;;;;;7.57;100.00;101259.47;4898930;29;20048;-83
2022/11/12 07:46:10;;;;;;;98.20;49.97;;;;;;;7.73;100.00;101255.84;4898843;29;20112;-83
2022/11/12 07:48:35;;;;;;;83.00;46.70;;;;;;;7.80;100.00;101243.72;4881997;29;20029;-83
2022/11/12 07:51:04;;;;;;;107.18;53.63;;;;;;;8.10;100.00;101258.09;4898833;29;20650;-83
2022/11/12 07:53:30;;;;;;;93.70;48.92;;;;;;;8.19;99.27;101250.22;4881863;29;20377;-83
2022/11/12 07:55:57;;;;;;;86.40;45.03;;;;;;;8.37;98.71;101255.22;4898650;29;20028;-83
2022/11/12 07:58:23;;;;;;;81.78;43.45;;;;;;;8.43;98.47;101255.16;4881589;29;20044;-83
2022/11/12 08:00:50;;;;;;;64.18;34.95;;;;;;;8.52;98.14;101256.78;4898750;29;20039;-83
2022/11/12 08:03:15;;;;;;;38.70;21.30;;;;;;;8.65;97.25;101252.28;4898198;29;20035;-83
2022/11/12 08:05:41;;;;;;;31.67;18.27;;;;;;;8.82;96.75;101252.91;4882064;29;20029;-83
2022/11/12 08:08:06;;;;;;;24.17;14.48;;;;;;;8.88;95.95;101246.75;4898827;29;20032;-83
2022/11/12 08:10:32;;;;;;;21.77;14.02;;;;;;;9.00;95.36;101256.97;4881383;29;20040;-83
2022/11/12 08:12:57;;;;;;;25.10;15.43;;;;;;;9.11;95.01;101262.03;4898473;29;20126;-83
2022/11/12 08:15:22;;;;;;;23.17;13.07;;;;;;;9.19;94.50;101260.19;4897908;29;20096;-83
2022/11/12 08:17:48;;;;;;;18.58;12.85;;;;;;;9.27;94.50;101265.25;4898241;29;20028;-83
2022/11/12 08:20:13;;;;;;;20.52;14.18;;;;;;;9.29;94.56;101259.16;4881383;29;20572;-83
2022/11/12 08:22:39;;;;;;;17.83;12.00;;;;;;;9.36;94.35;101252.97;4881301;29;20048;-83
2022/11/12 08:25:05;;;;;;;20.38;13.68;;;;;;;9.38;94.41;101247.75;4898241;29;20056;-83
2022/11/12 08:27:30;;;;;;;18.08;13.00;;;;;;;9.51;94.33;101257.06;4880972;29;20119;-83
2022/11/12 08:29:56;;;;;;;18.85;12.65;;;;;;;9.58;94.21;101253.47;4898068;29;20020;-83
2022/11/12 08:32:21;;;;;;;17.38;12.02;;;;;;;9.58;93.87;101237.00;4881014;29;20036;-83
2022/11/12 08:34:46;;;;;;;20.30;14.25;;;;;;;9.78;93.36;101255.75;4898164;29;20073;-83
2022/11/12 08:37:12;;;;;;;22.35;15.20;;;;;;;9.79;93.19;101247.03;4898289;29;20032;-83
2022/11/12 08:39:37;;;;;;;27.95;16.92;;;;;;;9.86;93.04;101248.66;4898075;29;20461;-83
2022/11/12 08:42:03;;;;;;;29.90;18.27;;;;;;;9.90;92.77;101258.13;4881105;29;20129;-83
2022/11/12 08:44:28;;;;;;;29.25;16.80;;;;;;;9.94;92.44;101253.69;4897757;29;20032;-83
2022/11/12 08:46:54;;;;;;;19.90;12.95;;;;;;;9.95;92.11;101260.66;4898073;29;20043;-83
2022/11/12 08:49:19;;;;;;;19.20;12.00;;;;;;;10.03;92.25;101273.50;4880468;29;20104;-83
2022/11/12 08:51:44;;;;;;;15.55;9.85;;;;;;;10.02;92.24;101261.38;4897659;29;20035;-83
2022/11/12 08:54:10;;;;;;;15.63;9.35;;;;;;;10.07;92.21;101272.56;4880998;29;20020;-83
2022/11/12 08:56:35;;;;;;;12.90;7.00;;;;;;;10.11;91.67;101284.63;4894496;29;20033;-83
2022/11/12 08:59:00;;;;;;;17.42;8.07;;;;;;;10.07;90.73;101267.34;4897405;29;20031;-83
2022/11/12 09:01:26;;;;;;;14.43;8.20;;;;;;;10.15;90.87;101278.47;4877157;29;20358;-84
2022/11/12 09:03:51;;;;;;;9.95;6.88;;;;;;;10.09;90.63;101258.63;4897325;29;20115;-83
2022/11/12 09:06:16;;;;;;;10.00;6.60;;;;;;;10.17;90.61;101271.50;4880551;29;20476;-83
2022/11/12 09:08:42;;;;;;;9.02;6.70;;;;;;;10.16;90.23;101262.00;4897554;29;20032;-83
2022/11/12 09:11:07;;;;;;;8.80;5.60;;;;;;;10.20;90.15;101264.50;4891326;29;20036;-83
2022/11/12 09:13:33;;;;;;;8.63;5.63;;;;;;;10.21;90.19;101255.78;4870191;29;20024;-81
2022/11/12 09:16:00;;;;;;;6.90;4.97;;;;;;;10.24;90.22;101255.78;4861616;29;20064;-81
2022/11/12 09:18:25;;;;;;;7.00;4.78;;;;;;;10.26;89.96;101249.69;4884847;29;20032;-81
2022/11/12 09:20:51;;;;;;;9.90;5.65;;;;;;;10.33;88.89;101270.38;4880880;29;20040;-81
2022/11/12 09:23:16;;;;;;;12.60;9.32;;;;;;;10.33;87.62;101270.38;4878425;29;20496;-81
2022/11/12 09:25:43;;;;;;;8.82;5.53;;;;;;;10.32;85.87;101263.41;4881903;29;20369;-81
2022/11/12 09:28:10;;;;;;;19.27;7.82;;;;;;;10.39;86.05;101270.22;4896705;29;20032;-81
2022/11/12 09:30:37;;;;;;;11.65;6.00;;;;;;;10.38;85.81;101267.66;4896485;29;20210;-81
2022/11/12 09:33:03;;;;;;;12.82;6.63;;;;;;;10.45;86.36;101270.13;4879921;29;20035;-81
2022/11/12 09:35:29;;;;;;;17.88;9.15;;;;;;;10.49;85.91;101271.78;4879937;29;20111;-81
2022/11/12 09:37:56;;;;;;;10.55;6.05;;;;;;;10.49;85.78;101261.34;4897345;29;20071;-81
2022/11/12 09:40:27;;;;;;;12.13;5.35;;;;;;;10.55;86.04;101262.09;4856828;29;20470;-82
2022/11/12 09:42:53;;;;;;;9.25;6.00;;;;;;;10.65;86.02;101267.09;4857414;29;20110;-84
2022/11/12 09:45:28;;;;;;;9.57;5.90;;;;;;;10.61;85.53;101255.00;4857038;29;20045;-83
2022/11/12 09:48:01;;;;;;;11.32;6.18;;;;;;;10.61;85.47;101251.53;4841782;29;20452;-83
2022/11/12 09:50:35;;;;;;;6.95;5.25;;;;;;;10.73;86.20;101267.78;4841541;29;20498;-83
2022/11/12 09:53:15;;;;;;;19.70;12.45;;;;;;;10.74;85.85;101273.84;4857345;29;20170;-83
2022/11/12 09:55:48;;;;;;;15.50;9.98;;;;;;;10.78;86.02;101278.09;4857235;29;20497;-82
2022/11/12 09:58:15;;;;;;;9.77;7.03;;;;;;;10.82;86.11;101281.50;4857159;29;20034;-82
2022/11/12 10:01:02;;;;;;;21.70;9.82;;;;;;;10.79;85.83;101279.84;4856996;29;20514;-82
2022/11/12 10:03:48;;;;;;;20.02;8.55;;;;;;;10.88;85.57;101289.22;4802121;29;20144;-82
2022/11/12 10:06:22;;;;;;;11.43;6.60;;;;;;;10.80;84.26;101273.72;4802287;29;20046;-83
2022/11/12 10:08:53;;;;;;;12.30;7.60;;;;;;;10.85;84.39;101277.09;4802304;29;20396;-82
2022/11/12 10:14:41;;;;;;;8.02;5.10;;;;;;;10.94;84.76;101281.25;4838422;29;20072;-84
2022/11/12 10:17:25;;;;;;;10.40;5.30;;;;;;;10.94;84.17;101281.25;4838452;29;20475;-84
2022/11/12 10:19:56;;;;;;;11.50;5.50;;;;;;;10.94;84.19;101289.91;4838622;29;20034;-84
2022/11/12 10:22:39;;;;;;;9.48;6.00;;;;;;;10.93;84.36;101283.00;4837914;29;20046;-83
2022/11/12 10:25:17;;;;;;;8.05;5.43;;;;;;;10.85;84.19;101273.63;4823107;29;20419;-82
2022/11/12 10:27:44;;;;;;;7.75;5.28;;;;;;;10.89;84.26;101276.13;4838330;29;20125;-85
2022/11/12 10:30:22;;;;;;;8.90;5.85;;;;;;;10.95;84.53;101282.94;4823254;29;20041;-85
2022/11/12 10:32:49;;;;;;;10.70;6.03;;;;;;;10.94;84.42;101282.09;4823225;29;20037;-84
2022/11/12 10:35:21;;;;;;;11.80;5.60;;;;;;;10.94;84.38;101281.25;4823145;29;20121;-84
2022/11/12 10:38:03;;;;;;;8.23;5.53;;;;;;;10.95;84.95;101277.72;4839759;29;20425;-84
2022/11/12 10:40:30;;;;;;;8.57;5.82;;;;;;;10.97;84.97;101276.81;4868109;29;20064;-86
2022/11/12 10:42:55;;;;;;;9.68;5.97;;;;;;;11.04;84.83;101284.50;4883113;29;20055;-84
2022/11/12 10:45:22;;;;;;;12.57;5.32;;;;;;;11.02;84.98;101278.47;4899898;29;20039;-86
2022/11/12 10:47:47;;;;;;;7.75;5.78;;;;;;;11.04;84.93;101282.78;4883071;29;20036;-86
2022/11/12 10:50:41;;;;;;;8.55;5.50;;;;;;;11.08;85.10;101287.03;4882805;29;20021;-83
2022/11/12 10:53:10;;;;;;;7.22;5.38;;;;;;;11.01;84.97;101267.19;4883024;29;20485;-83
2022/11/12 10:55:59;;;;;;;7.63;4.97;;;;;;;11.10;84.85;101276.53;4899559;29;20063;-83
2022/11/12 10:58:25;;;;;;;16.70;6.32;;;;;;;11.07;84.85;101268.78;4882476;29;20031;-83
2022/11/12 11:00:58;;;;;;;18.80;10.25;;;;;;;11.14;84.26;101268.63;4899724;29;20048;-83
2022/11/12 11:03:35;;;;;;;13.20;7.50;;;;;;;11.16;84.59;101281.59;4882690;29;20035;-84
2022/11/12 11:06:12;;;;;;;8.77;6.70;;;;;;;11.15;83.98;101285.97;4899647;29;20031;-84
2022/11/12 11:08:45;;;;;;;11.43;6.28;;;;;;;11.13;84.14;101279.09;4899711;29;20036;-84
2022/11/12 11:11:27;;;;;;;11.50;6.50;;;;;;;11.09;84.11;101270.47;4882170;29;20025;-84
2022/11/12 11:13:55;;;;;;;10.00;7.03;;;;;;;11.08;84.51;101270.50;4882614;29;20036;-85
2022/11/12 11:16:26;;;;;;;9.95;7.05;;;;;;;11.06;84.96;101265.31;4882400;29;20105;-85
2022/11/12 11:18:58;;;;;;;11.55;7.32;;;;;;;11.06;84.97;101262.72;4882498;29;20217;-86
2022/11/12 11:21:28;;;;;;;9.77;6.78;;;;;;;11.07;85.04;101272.25;4882055;29;20058;-86
2022/11/12 11:24:09;;;;;;;13.20;6.70;;;;;;;11.09;85.39;101278.31;4882604;29;20055;-86
2022/11/12 11:27:16;;;;;;;12.18;7.80;;;;;;;11.10;85.81;101280.00;4882161;29;20061;-86
2022/11/12 11:30:03;;;;;;;12.13;6.90;;;;;;;11.11;85.91;101273.91;4840774;29;20426;-86
2022/11/12 11:32:34;;;;;;;10.85;6.88;;;;;;;11.13;86.18;101281.69;4825351;29;20065;-86
2022/11/12 11:35:05;;;;;;;9.18;6.97;;;;;;;11.13;86.37;101286.91;4825441;29;20033;-86
2022/11/12 11:37:45;;;;;;;11.85;7.18;;;;;;;11.12;85.89;101274.75;4825143;29;20257;-86
2022/11/12 11:40:28;;;;;;;;;;;;;;;11.16;86.17;101282.47;4825851;29;20038;-86
2022/11/12 11:43:11;;;;;;;11.60;6.75;;;;;;;11.16;86.51;101285.06;4825466;29;19908;-86